createdAt,value
2023-05-04T00:00:20.067Z,101574.56
2023-05-04T00:03:22.267Z,101572.09
2023-05-04T00:06:24.287Z,101572.09
2023-05-04T00:09:26.276Z,101562.81
2023-05-04T00:12:28.616Z,101561.91
2023-05-04T00:15:30.540Z,101569.63
2023-05-04T00:18:32.521Z,101567.97
2023-05-04T00:21:34.506Z,101563.84
2023-05-04T00:24:36.598Z,101560.53
2023-05-04T00:27:38.273Z,101558.91
2023-05-04T00:30:40.757Z,101553.66
2023-05-04T00:33:42.629Z,101546.91
2023-05-04T00:36:44.574Z,101546.13
2023-05-04T00:39:48.490Z,101546.31
2023-05-04T00:42:50.210Z,101544.03
2023-05-04T00:45:52.410Z,101537.34
2023-05-04T00:48:54.210Z,101540.72
2023-05-04T00:51:57.285Z,101527.25
2023-05-04T00:55:01.425Z,101530.72
2023-05-04T00:58:03.569Z,101527.97
2023-05-04T01:01:05.593Z,101533.13
2023-05-04T01:04:08.181Z,101526.28
2023-05-04T01:07:16.592Z,101523.81
2023-05-04T01:10:26.022Z,101527.25
2023-05-04T01:13:28.375Z,101525.59
2023-05-04T01:16:30.179Z,101531.75
2023-05-04T01:19:31.912Z,101526.56
2023-05-04T01:22:33.771Z,101522.44
2023-05-04T01:26:02.801Z,101530.19
2023-05-04T01:29:23.619Z,101520.13
2023-05-04T01:32:28.412Z,101522.81
2023-05-04T01:35:32.712Z,101517.69
2023-05-04T01:38:34.640Z,101524.69
2023-05-04T01:41:37.069Z,101523.84
2023-05-04T01:44:38.996Z,101528.22
2023-05-04T01:47:41.738Z,101528.13
2023-05-04T01:50:43.725Z,101524.81
2023-05-04T01:53:45.853Z,101523.13
2023-05-04T01:56:47.904Z,101524.09
2023-05-04T01:59:49.832Z,101519.91
2023-05-04T02:02:51.710Z,101525.06
2023-05-04T02:05:54.700Z,101522.63
2023-05-04T02:08:56.895Z,101527.81
2023-05-04T02:11:59.083Z,101519.31
2023-05-04T02:15:01.062Z,101519.75
2023-05-04T02:18:03.148Z,101514.88
2023-05-04T02:21:05.324Z,101510.28
2023-05-04T02:24:07.524Z,101520.81
2023-05-04T02:27:09.285Z,101523.72
2023-05-04T02:30:11.957Z,101526.50
2023-05-04T02:33:16.476Z,101528.50
2023-05-04T02:36:18.374Z,101524.34
2023-05-04T02:39:20.252Z,101532.97
2023-05-04T02:42:22.211Z,101538.97
2023-05-04T02:45:24.230Z,101528.78
2023-05-04T02:48:26.200Z,101526.25
2023-05-04T02:51:28.086Z,101522.22
2023-05-04T02:54:30.503Z,101526.56
2023-05-04T02:57:32.636Z,101524.03
2023-05-04T03:00:34.979Z,101520.66
2023-05-04T03:03:36.835Z,101511.47
2023-05-04T03:06:38.764Z,101508.84
2023-05-04T03:09:41.204Z,101509.78
2023-05-04T03:12:43.033Z,101515.84
2023-05-04T03:15:45.333Z,101509.03
2023-05-04T03:18:47.413Z,101505.59
2023-05-04T03:21:49.868Z,101505.56
2023-05-04T03:24:52.121Z,101499.59
2023-05-04T03:27:54.385Z,101506.34
2023-05-04T03:30:56.422Z,101504.72
2023-05-04T03:33:58.436Z,101498.78
2023-05-04T03:37:00.450Z,101502.09
2023-05-04T03:40:02.913Z,101501.09
2023-05-04T03:43:04.996Z,101506.16
2023-05-04T03:46:07.215Z,101492.41
2023-05-04T03:49:09.077Z,101496.50
2023-05-04T03:52:10.797Z,101487.81
2023-05-04T03:55:14.016Z,101483.63
2023-05-04T03:58:15.992Z,101485.13
2023-05-04T04:01:17.960Z,101480.66
2023-05-04T04:04:19.875Z,101487.34
2023-05-04T04:07:21.849Z,101483.81
2023-05-04T04:10:24.071Z,101485.44
2023-05-04T04:13:25.845Z,101476.66
2023-05-04T04:16:27.588Z,101480.78
2023-05-04T04:19:29.973Z,101478.81
2023-05-04T04:22:31.794Z,101479.47
2023-05-04T04:25:33.861Z,101476.75
2023-05-04T04:28:35.904Z,101474.16
2023-05-04T04:31:37.981Z,101470.66
2023-05-04T04:34:40.183Z,101468.06
2023-05-04T04:37:42.293Z,101472.94
2023-05-04T04:40:44.345Z,101471.91
2023-05-04T04:43:46.409Z,101474.03
2023-05-04T04:46:48.638Z,101471.16
2023-05-04T04:49:50.847Z,101472.69
2023-05-04T04:52:52.865Z,101475.06
2023-05-04T04:55:54.962Z,101474.75
2023-05-04T04:58:56.859Z,101472.81
2023-05-04T05:01:59.367Z,101472.53
2023-05-04T05:05:01.203Z,101473.00
2023-05-04T05:08:03.290Z,101471.81
2023-05-04T05:11:06.075Z,101466.50
2023-05-04T05:14:08.137Z,101465.25
2023-05-04T05:17:10.423Z,101465.03
2023-05-04T05:20:12.468Z,101465.44
2023-05-04T05:23:14.761Z,101461.56
2023-05-04T05:26:16.613Z,101465.50
2023-05-04T05:29:18.437Z,101456.69
2023-05-04T05:32:20.480Z,101463.22
2023-05-04T05:35:22.202Z,101459.59
2023-05-04T05:38:23.878Z,101467.78
2023-05-04T05:41:25.958Z,101461.53
2023-05-04T05:44:27.858Z,101466.38
2023-05-04T05:47:29.857Z,101459.19
2023-05-04T05:50:31.818Z,101458.00
2023-05-04T05:53:33.663Z,101456.59
2023-05-04T05:56:35.474Z,101462.13
2023-05-04T05:59:37.480Z,101458.25
2023-05-04T06:02:39.594Z,101469.78
2023-05-04T06:05:42.423Z,101458.97
2023-05-04T06:08:44.493Z,101462.66
2023-05-04T06:11:46.813Z,101454.06
2023-05-04T06:14:48.680Z,101455.53
2023-05-04T06:17:51.901Z,101456.25
2023-05-04T06:21:04.788Z,101453.44
2023-05-04T06:24:06.993Z,101458.34
2023-05-04T06:27:08.977Z,101455.28
2023-05-04T06:30:11.571Z,101453.06
2023-05-04T06:33:13.851Z,101455.75
2023-05-04T06:36:15.990Z,101455.16
2023-05-04T06:39:18.111Z,101460.72
2023-05-04T06:42:20.923Z,101473.25
2023-05-04T06:45:24.482Z,101468.38
2023-05-04T06:48:26.624Z,101470.53
2023-05-04T06:51:28.919Z,101466.09
2023-05-04T06:54:31.810Z,101465.13
2023-05-04T06:57:34.126Z,101474.59
2023-05-04T07:00:36.268Z,101459.94
2023-05-04T07:03:39.140Z,101462.44
2023-05-04T07:06:41.290Z,101466.22
2023-05-04T07:09:44.148Z,101460.72
2023-05-04T07:12:46.067Z,101457.53
2023-05-04T07:15:47.800Z,101466.44
2023-05-04T07:18:49.792Z,101464.22
2023-05-04T07:21:51.552Z,101462.13
2023-05-04T07:24:53.450Z,101455.63
2023-05-04T07:27:55.534Z,101451.91
2023-05-04T07:30:58.317Z,101449.97
2023-05-04T07:33:59.985Z,101444.94
2023-05-04T07:37:05.271Z,101451.13
2023-05-04T07:40:07.963Z,101446.69
2023-05-04T07:43:09.975Z,101449.19
2023-05-04T07:46:12.651Z,101449.34
2023-05-04T07:49:14.592Z,101454.06
2023-05-04T07:52:16.423Z,101450.81
2023-05-04T07:55:19.314Z,101444.69
2023-05-04T07:58:21.298Z,101443.38
2023-05-04T08:01:23.140Z,101447.63
2023-05-04T08:04:25.003Z,101449.63
2023-05-04T08:07:26.917Z,101443.00
2023-05-04T08:10:29.418Z,101448.44
2023-05-04T08:13:31.505Z,101444.16
2023-05-04T08:16:33.659Z,101442.25
2023-05-04T08:19:35.564Z,101430.53
2023-05-04T08:22:37.469Z,101426.22
2023-05-04T08:25:39.380Z,101425.84
2023-05-04T08:28:41.633Z,101426.41
2023-05-04T08:31:43.602Z,101414.03
2023-05-04T08:34:45.561Z,101404.09
2023-05-04T08:37:47.939Z,101403.25
2023-05-04T08:40:50.646Z,101399.19
2023-05-04T08:43:52.889Z,101401.13
2023-05-04T08:46:57.054Z,101394.50
2023-05-04T08:49:58.983Z,101391.66
2023-05-04T08:53:04.469Z,101389.09
2023-05-04T08:56:14.423Z,101381.94
2023-05-04T08:59:21.903Z,101378.59
2023-05-04T09:02:25.122Z,101377.91
2023-05-04T09:05:27.569Z,101368.97
2023-05-04T09:08:29.486Z,101373.94
2023-05-04T09:11:32.447Z,101368.31
2023-05-04T09:14:36.152Z,101379.16
2023-05-04T09:17:47.512Z,101375.44
2023-05-04T09:20:58.737Z,101373.53
2023-05-04T09:24:01.126Z,101368.06
2023-05-04T09:27:18.974Z,101375.19
2023-05-04T09:30:22.004Z,101361.16
2023-05-04T09:33:30.150Z,101372.84
2023-05-04T09:36:32.131Z,101366.25
2023-05-04T09:39:33.967Z,101370.91
2023-05-04T09:42:36.081Z,101364.88
2023-05-04T09:45:48.494Z,101365.81
2023-05-04T09:48:57.281Z,101364.97
2023-05-04T09:52:02.662Z,101357.94
2023-05-04T09:55:05.899Z,101353.41
2023-05-04T09:58:09.240Z,101345.88
2023-05-04T10:01:11.849Z,101348.06
2023-05-04T10:04:14.149Z,101340.75
2023-05-04T10:07:16.756Z,101346.00
2023-05-04T10:10:18.788Z,101339.88
2023-05-04T10:13:20.952Z,101330.88
2023-05-04T10:16:26.217Z,101331.53
2023-05-04T10:20:19.848Z,101327.28
2023-05-04T10:23:49.164Z,101334.97
2023-05-04T10:27:12.324Z,101327.72
2023-05-04T10:30:18.677Z,101325.94
2023-05-04T10:33:20.606Z,101318.09
2023-05-04T10:36:22.492Z,101317.13
2023-05-04T10:39:26.617Z,101311.44
2023-05-04T10:42:28.744Z,101316.09
2023-05-04T10:45:41.933Z,101317.00
2023-05-04T10:48:43.755Z,101316.72
2023-05-04T10:51:49.550Z,101306.31
2023-05-04T10:54:59.872Z,101302.13
2023-05-04T10:58:01.862Z,101286.97
2023-05-04T11:01:13.012Z,101280.25
2023-05-04T11:04:22.397Z,101285.78
2023-05-04T11:07:39.724Z,101277.22
2023-05-04T11:10:41.478Z,101262.03
2023-05-04T11:13:46.818Z,101267.47
2023-05-04T11:16:48.807Z,101261.63
2023-05-04T11:19:52.916Z,101260.84
2023-05-04T11:22:54.780Z,101260.25
2023-05-04T11:25:56.605Z,101254.03
2023-05-04T11:28:58.713Z,101238.47
2023-05-04T11:32:00.508Z,101235.44
2023-05-04T11:35:04.607Z,101235.78
2023-05-04T11:38:07.671Z,101229.25
2023-05-04T11:41:10.291Z,101229.41
2023-05-04T11:44:12.563Z,101218.97
2023-05-04T11:47:14.827Z,101215.19
2023-05-04T11:50:20.726Z,101216.19
2023-05-04T11:53:23.309Z,101207.34
2023-05-04T11:56:25.022Z,101204.22
2023-05-04T11:59:26.995Z,101202.94
2023-05-04T12:02:28.973Z,101196.88
2023-05-04T12:05:32.114Z,101203.59
2023-05-04T12:08:42.550Z,101185.03
2023-05-04T12:11:55.192Z,101193.28
2023-05-04T12:14:57.509Z,101183.13
2023-05-04T12:18:02.737Z,101189.84
2023-05-04T12:21:10.350Z,101186.53
2023-05-04T12:24:12.388Z,101185.53
2023-05-04T12:27:15.170Z,101179.59
2023-05-04T12:30:17.566Z,101181.69
2023-05-04T12:33:19.634Z,101180.16
2023-05-04T12:36:22.012Z,101172.56
2023-05-04T12:39:24.235Z,101174.63
2023-05-04T12:42:26.215Z,101168.06
2023-05-04T12:45:28.349Z,101168.69
2023-05-04T12:48:33.059Z,101175.31
2023-05-04T12:51:35.697Z,101166.22
2023-05-04T12:54:37.820Z,101162.06
2023-05-04T12:57:45.066Z,101160.00
2023-05-04T13:00:47.350Z,101156.84
2023-05-04T13:03:49.511Z,101152.88
2023-05-04T13:06:52.010Z,101151.94
2023-05-04T13:09:54.245Z,101145.59
2023-05-04T13:12:56.691Z,101141.38
2023-05-04T13:15:58.765Z,101140.09
2023-05-04T13:19:00.832Z,101135.38
2023-05-04T13:22:02.915Z,101130.56
2023-05-04T13:25:05.432Z,101122.66
2023-05-04T13:28:07.531Z,101124.53
2023-05-04T13:31:09.951Z,101113.84
2023-05-04T13:34:11.930Z,101113.28
2023-05-04T13:37:18.328Z,101104.66
2023-05-04T13:40:20.709Z,101102.84
2023-05-04T13:43:22.714Z,101095.75
2023-05-04T13:46:27.422Z,101099.84
2023-05-04T13:49:30.700Z,101084.53
2023-05-04T13:52:33.158Z,101079.78
2023-05-04T13:55:35.108Z,101074.59
2023-05-04T13:58:37.386Z,101072.16
2023-05-04T14:01:39.476Z,101067.78
2023-05-04T14:04:44.452Z,101062.41
2023-05-04T14:07:46.446Z,101055.97
2023-05-04T14:10:48.483Z,101052.06
2023-05-04T14:13:51.555Z,101045.72
2023-05-04T14:16:53.639Z,101035.00
2023-05-04T14:19:56.235Z,101033.16
2023-05-04T14:22:58.413Z,101024.19
2023-05-04T14:26:01.034Z,101024.03
2023-05-04T14:29:03.700Z,101025.81
2023-05-04T14:32:05.986Z,101015.91
2023-05-04T14:35:09.941Z,101019.09
2023-05-04T14:38:13.265Z,101002.69
2023-05-04T14:41:15.421Z,101011.28
2023-05-04T14:44:17.891Z,101003.97
2023-05-04T14:47:20.301Z,101008.25
2023-05-04T14:50:22.751Z,101007.56
2023-05-04T14:53:25.017Z,100998.91
2023-05-04T14:56:28.173Z,100994.81
2023-05-04T14:59:30.469Z,100990.78
2023-05-04T15:02:32.531Z,100981.91
2023-05-04T15:05:34.809Z,100971.78
2023-05-04T15:08:36.870Z,100975.25
2023-05-04T15:11:39.360Z,100956.91
2023-05-04T15:14:41.758Z,100964.66
2023-05-04T15:17:43.894Z,100965.28
2023-05-04T15:20:45.916Z,100961.63
2023-05-04T15:23:48.048Z,100963.88
2023-05-04T15:26:50.069Z,100967.50
2023-05-04T15:29:52.400Z,100959.34
2023-05-04T15:32:54.545Z,100948.13
2023-05-04T15:35:56.609Z,100945.09
2023-05-04T15:38:58.432Z,100948.53
2023-05-04T15:42:00.533Z,100941.94
2023-05-04T15:45:02.463Z,100936.94
2023-05-04T15:48:04.744Z,100936.09
2023-05-04T15:51:12.872Z,100929.88
2023-05-04T15:54:15.359Z,100925.97
2023-05-04T15:57:17.522Z,100928.44
2023-05-04T16:00:19.894Z,100918.72
2023-05-04T16:03:23.791Z,100921.25
2023-05-04T16:06:26.621Z,100919.81
2023-05-04T16:09:30.162Z,100913.50
2023-05-04T16:12:32.577Z,100916.59
2023-05-04T16:15:34.690Z,100909.28
2023-05-04T16:18:36.997Z,100902.56
2023-05-04T16:21:39.136Z,100907.00
2023-05-04T16:24:41.127Z,100897.81
2023-05-04T16:27:43.336Z,100907.31
2023-05-04T16:30:45.664Z,100904.22
2023-05-04T16:33:48.175Z,100894.44
2023-05-04T16:36:50.205Z,100888.97
2023-05-04T16:39:51.959Z,100891.78
2023-05-04T16:42:53.993Z,100890.56
2023-05-04T16:45:55.867Z,100879.28
2023-05-04T16:48:57.789Z,100878.00
2023-05-04T16:51:59.762Z,100883.91
2023-05-04T16:55:02.293Z,100871.75
2023-05-04T16:58:04.180Z,100870.16
2023-05-04T17:01:06.339Z,100870.25
2023-05-04T17:04:08.984Z,100864.03
2023-05-04T17:07:11.110Z,100864.03
2023-05-04T17:10:12.978Z,100856.00
2023-05-04T17:13:15.087Z,100850.88
2023-05-04T17:16:18.952Z,100857.28
2023-05-04T17:19:20.858Z,100855.53
2023-05-04T17:22:23.809Z,100850.00
2023-05-04T17:25:27.130Z,100852.44
2023-05-04T17:28:30.210Z,100855.88
2023-05-04T17:31:32.122Z,100862.31
2023-05-04T17:34:34.958Z,100867.50
2023-05-04T17:37:36.777Z,100863.00
2023-05-04T17:40:38.511Z,100861.13
2023-05-04T17:43:40.438Z,100869.59
2023-05-04T17:46:42.623Z,100872.47
2023-05-04T17:49:44.716Z,100864.22
2023-05-04T17:52:51.697Z,100864.38
2023-05-04T17:55:53.621Z,100869.34
2023-05-04T17:58:55.877Z,100873.59
2023-05-04T18:01:57.771Z,100874.06
2023-05-04T18:04:59.741Z,100872.38
2023-05-04T18:08:02.031Z,100875.03
2023-05-04T18:11:03.876Z,100879.03
2023-05-04T18:14:05.666Z,100884.66
2023-05-04T18:17:08.046Z,100880.78
2023-05-04T18:20:12.734Z,100875.09
2023-05-04T18:23:14.416Z,100875.56
2023-05-04T18:26:22.801Z,100869.84
2023-05-04T18:29:24.744Z,100873.13
2023-05-04T18:32:26.665Z,100878.72
2023-05-04T18:35:28.864Z,100878.56
2023-05-04T18:38:30.588Z,100880.16
2023-05-04T18:41:32.290Z,100872.28
2023-05-04T18:44:56.281Z,100879.88
2023-05-04T18:47:58.226Z,100887.66
2023-05-04T18:51:00.715Z,100892.34
2023-05-04T18:54:02.467Z,100891.81
2023-05-04T18:57:04.305Z,100891.16
2023-05-04T19:00:07.355Z,100899.81
2023-05-04T19:03:09.426Z,100892.81
2023-05-04T19:06:12.105Z,100901.44
2023-05-04T19:09:14.705Z,100890.88
2023-05-04T19:12:16.484Z,100887.88
2023-05-04T19:15:18.639Z,100891.97
2023-05-04T19:18:20.960Z,100896.78
2023-05-04T19:21:22.806Z,100884.31
2023-05-04T19:24:24.733Z,100887.72
2023-05-04T19:27:26.421Z,100888.41
2023-05-04T19:30:28.128Z,100892.50
2023-05-04T19:33:44.541Z,100885.19
2023-05-04T19:36:49.959Z,100889.59
2023-05-04T19:39:51.749Z,100888.47
2023-05-04T19:42:53.857Z,100885.44
2023-05-04T19:45:57.393Z,100895.00
2023-05-04T19:48:59.733Z,100891.97
2023-05-04T19:52:01.636Z,100895.38
2023-05-04T19:55:03.482Z,100897.69
2023-05-04T19:58:06.009Z,100891.34
2023-05-04T20:01:07.992Z,100886.94
2023-05-04T20:04:09.895Z,100882.91
2023-05-04T20:07:11.787Z,100880.94
2023-05-04T20:10:13.575Z,100876.13
2023-05-04T20:13:15.299Z,100883.25
2023-05-04T20:16:17.628Z,100881.03
2023-05-04T20:19:19.420Z,100875.53
2023-05-04T20:22:21.093Z,100876.88
2023-05-04T20:25:23.034Z,100884.22
2023-05-04T20:28:24.586Z,100878.81
2023-05-04T20:31:26.977Z,100877.00
2023-05-04T20:34:29.268Z,100873.81
2023-05-04T20:37:31.484Z,100883.66
2023-05-04T20:40:33.398Z,100873.75
2023-05-04T20:43:36.214Z,100882.63
2023-05-04T20:46:38.349Z,100881.09
2023-05-04T20:49:40.145Z,100873.81
2023-05-04T20:52:41.950Z,100871.47
2023-05-04T20:55:44.024Z,100867.03
2023-05-04T20:58:45.843Z,100870.25
2023-05-04T21:01:47.919Z,100872.50
2023-05-04T21:04:49.837Z,100865.91
2023-05-04T21:07:54.572Z,100867.34
2023-05-04T21:10:56.936Z,100862.91
2023-05-04T21:13:58.830Z,100859.94
2023-05-04T21:17:00.948Z,100866.69
2023-05-04T21:20:03.082Z,100860.44
2023-05-04T21:23:04.866Z,100862.44
2023-05-04T21:26:06.561Z,100861.84
2023-05-04T21:29:17.531Z,100864.69
2023-05-04T21:32:19.151Z,100858.34
2023-05-04T21:35:22.013Z,100857.03
2023-05-04T21:38:23.985Z,100851.16
2023-05-04T21:41:25.605Z,100848.09
2023-05-04T21:44:27.363Z,100848.44
2023-05-04T21:47:29.785Z,100852.25
2023-05-04T21:50:31.517Z,100850.22
2023-05-04T21:53:33.719Z,100852.13
2023-05-04T21:56:35.530Z,100846.22
2023-05-04T21:59:37.366Z,100842.19
2023-05-04T22:02:39.353Z,100847.97
2023-05-04T22:05:41.183Z,100844.91
2023-05-04T22:08:43.088Z,100857.38
2023-05-04T22:11:46.512Z,100850.78
2023-05-04T22:14:48.226Z,100845.94
2023-05-04T22:17:50.074Z,100844.53
2023-05-04T22:20:51.927Z,100846.53
2023-05-04T22:23:53.848Z,100833.00
2023-05-04T22:26:55.661Z,100838.28
2023-05-04T22:29:57.463Z,100838.28
2023-05-04T22:32:59.603Z,100842.53
2023-05-04T22:36:01.475Z,100842.06
2023-05-04T22:39:03.419Z,100841.34
2023-05-04T22:42:05.270Z,100834.72
2023-05-04T22:45:07.560Z,100834.97
2023-05-04T22:48:09.447Z,100834.38
2023-05-04T22:51:11.344Z,100837.31
2023-05-04T22:54:13.465Z,100832.69
2023-05-04T22:57:15.795Z,100839.97
2023-05-04T23:00:18.536Z,100833.47
2023-05-04T23:03:20.493Z,100833.13
2023-05-04T23:06:22.633Z,100826.72
2023-05-04T23:09:24.337Z,100821.03
2023-05-04T23:12:27.493Z,100822.28
2023-05-04T23:15:29.385Z,100821.69
2023-05-04T23:18:33.104Z,100821.22
2023-05-04T23:21:35.052Z,100819.75
2023-05-04T23:24:37.159Z,100822.81
2023-05-04T23:27:39.748Z,100818.06
2023-05-04T23:30:41.483Z,100816.03
2023-05-04T23:33:43.550Z,100819.78
2023-05-04T23:36:46.469Z,100815.75
2023-05-04T23:39:49.625Z,100811.63
2023-05-04T23:42:51.767Z,100819.38
2023-05-04T23:46:04.968Z,100812.75
2023-05-04T23:49:06.730Z,100816.41
2023-05-04T23:52:08.595Z,100808.75
2023-05-04T23:55:10.628Z,100808.22
2023-05-04T23:58:12.510Z,100812.72
